Terminal Aerodrome Forecast
Issued by NWS Tampa Bay Area, FL

Home | Current Version | Previous Version | Text Only | Print | Product List | Glossary Off
Versions: 1 2 3 4 5 6 7 8 9 10 11 12 13

164
FTUS42 KTBW 221727
TAFSRQ
TAF
KSRQ 221727Z 2218/2318 30012G20KT P6SM FEW035 BKN250
     FM230100 VRB05KT P6SM BKN250
     FM231400 30006KT P6SM SCT250=

USA.gov is the U.S. government's official web portal to all federal, state and local government web resources and services.